White Point — IBAE — position and weather

sailwx.info

Track history (hours):
 
Tides and Currents Weather Stations Pressure Air Temp Water Temp Dewpoint Dewpoint Depression Visibility Wind Speed Wind Dir Waves Ship Positions

White Point

Last reported at 2016-Sep-24 21:04 UTC. Time now 2016-Sep-27 01:56 UTC.
Position N 42°21' E 010°34'.

Length 183 m; draft 1.1 m.

Type: Ship (hazmat cat D). MMSI: 247087400.

Date/timePositionNaut miles runAvg speedWind from/ knotsBaromVisibWave heightAir tempDewpointWater temp
2016-Sep-24 21:04N 42°21' E 010°34'3813.9
2016-Sep-24 18:19N 42°39' E 009°48'2413.5
2016-Sep-24 16:33N 43°01' E 009°36'  
2016-Sep-20 08:04N 43°07' E 009°18'37411.7
2016-Sep-19 00:10N 38°57' E 015°28'46 9.9
2016-Sep-18 19:33N 38°13' E 015°16'0 0.0
2016-Sep-18 15:33N 38°13' E 015°16'0 0.0
2016-Sep-18 14:33N 38°13' E 015°16'0 0.0
2016-Sep-18 10:33N 38°13' E 015°16'0 0.0
2016-Sep-18 09:33N 38°13' E 015°16'0 0.0
2016-Sep-18 02:33N 38°13' E 015°16'0 0.0
2016-Sep-18 01:33N 38°13' E 015°16'0 0.0
2016-Sep-18 00:33N 38°13' E 015°16'0 0.0
2016-Sep-17 22:33N 38°13' E 015°16'0 0.0
2016-Sep-17 21:33N 38°13' E 015°16'0 0.0
2016-Sep-17 20:33N 38°13' E 015°16'0 0.0
2016-Sep-17 19:15N 38°13' E 015°16'2 0.3
2016-Sep-17 13:33N 38°13' E 015°18'0 0.1
2016-Sep-17 12:32N 38°13' E 015°18'0 0.0
2016-Sep-17 10:32N 38°13' E 015°18'0 0.0
2016-Sep-17 09:33N 38°13' E 015°18'0 0.1
2016-Sep-17 08:33N 38°13' E 015°18'10 9.7
2016-Sep-17 07:33N 38°18' E 015°28'16 8.0
2016-Sep-17 05:34N 38°04' E 015°36'1212.2
2016-Sep-17 04:33N 37°53' E 015°43'267 8.9
2016-Sep-15 22:29N 42°17' E 014°57'1414.5
2016-Sep-15 21:33N 42°20' E 014°39'2 0.1
2016-Sep-14 22:29N 42°20' E 014°36'  
Track history (hours):
 
Tides and Currents Weather Stations Pressure Air Temp Water Temp Dewpoint Dewpoint Depression Visibility Wind Speed Wind Dir Waves Ship Positions

White Point

Last reported at 2016-Sep-24 21:04 UTC. Time now 2016-Sep-27 01:56 UTC.
Position N 42°21' E 010°34'.

Length 183 m; draft 1.1 m.

Type: Ship (hazmat cat D). MMSI: 247087400.

Date/timePositionNaut miles runAvg speedWind from/ knotsBaromVisibWave heightAir tempDewpointWater temp
2016-Sep-24 21:04N 42°21' E 010°34'3813.9
2016-Sep-24 18:19N 42°39' E 009°48'2413.5
2016-Sep-24 16:33N 43°01' E 009°36'  
2016-Sep-20 08:04N 43°07' E 009°18'37411.7
2016-Sep-19 00:10N 38°57' E 015°28'46 9.9
2016-Sep-18 19:33N 38°13' E 015°16'0 0.0
2016-Sep-18 15:33N 38°13' E 015°16'0 0.0
2016-Sep-18 14:33N 38°13' E 015°16'0 0.0
2016-Sep-18 10:33N 38°13' E 015°16'0 0.0
2016-Sep-18 09:33N 38°13' E 015°16'0 0.0
2016-Sep-18 02:33N 38°13' E 015°16'0 0.0
2016-Sep-18 01:33N 38°13' E 015°16'0 0.0
2016-Sep-18 00:33N 38°13' E 015°16'0 0.0
2016-Sep-17 22:33N 38°13' E 015°16'0 0.0
2016-Sep-17 21:33N 38°13' E 015°16'0 0.0
2016-Sep-17 20:33N 38°13' E 015°16'0 0.0
2016-Sep-17 19:15N 38°13' E 015°16'2 0.3
2016-Sep-17 13:33N 38°13' E 015°18'0 0.1
2016-Sep-17 12:32N 38°13' E 015°18'0 0.0
2016-Sep-17 10:32N 38°13' E 015°18'0 0.0
2016-Sep-17 09:33N 38°13' E 015°18'0 0.1
2016-Sep-17 08:33N 38°13' E 015°18'10 9.7
2016-Sep-17 07:33N 38°18' E 015°28'16 8.0
2016-Sep-17 05:34N 38°04' E 015°36'1212.2
2016-Sep-17 04:33N 37°53' E 015°43'267 8.9
2016-Sep-15 22:29N 42°17' E 014°57'1414.5
2016-Sep-15 21:33N 42°20' E 014°39'2 0.1
2016-Sep-14 22:29N 42°20' E 014°36'  

Dump ship's entire track history